sensor_id;sensor_type;location;lat;lon;timestamp;temperature;humidity
31542;DHT22;18152;49.986;8.646;2023-09-07T00:01:19;16.30;99.90
31542;DHT22;18152;49.986;8.646;2023-09-07T00:03:45;16.20;99.90
31542;DHT22;18152;49.986;8.646;2023-09-07T00:06:10;16.20;99.90
31542;DHT22;18152;49.986;8.646;2023-09-07T00:08:36;16.10;99.90
31542;DHT22;18152;49.986;8.646;2023-09-07T00:11:06;16.10;99.90
31542;DHT22;18152;49.986;8.646;2023-09-07T00:13:33;16.10;99.90
31542;DHT22;18152;49.986;8.646;2023-09-07T00:16:03;16.10;99.90
31542;DHT22;18152;49.986;8.646;2023-09-07T00:18:29;16.00;99.90
31542;DHT22;18152;49.986;8.646;2023-09-07T00:20:55;16.00;99.90
31542;DHT22;18152;49.986;8.646;2023-09-07T00:23:21;15.90;99.90
31542;DHT22;18152;49.986;8.646;2023-09-07T00:25:46;15.90;99.90
31542;DHT22;18152;49.986;8.646;2023-09-07T00:28:12;15.90;99.90
31542;DHT22;18152;49.986;8.646;2023-09-07T00:30:38;15.80;99.90
31542;DHT22;18152;49.986;8.646;2023-09-07T00:33:04;15.80;99.90
31542;DHT22;18152;49.986;8.646;2023-09-07T00:35:30;15.70;99.90
31542;DHT22;18152;49.986;8.646;2023-09-07T00:37:55;15.70;99.90
31542;DHT22;18152;49.986;8.646;2023-09-07T00:40:22;15.70;99.90
31542;DHT22;18152;49.986;8.646;2023-09-07T00:42:48;15.60;99.90
31542;DHT22;18152;49.986;8.646;2023-09-07T00:45:13;15.50;99.90
31542;DHT22;18152;49.986;8.646;2023-09-07T00:47:39;15.50;99.90
31542;DHT22;18152;49.986;8.646;2023-09-07T00:50:06;15.50;99.90
31542;DHT22;18152;49.986;8.646;2023-09-07T00:52:32;15.40;99.90
31542;DHT22;18152;49.986;8.646;2023-09-07T00:55:00;15.40;99.90
31542;DHT22;18152;49.986;8.646;2023-09-07T00:57:26;15.40;99.90
31542;DHT22;18152;49.986;8.646;2023-09-07T00:59:52;15.30;99.90
31542;DHT22;18152;49.986;8.646;2023-09-07T01:02:17;15.30;99.90
31542;DHT22;18152;49.986;8.646;2023-09-07T01:04:43;15.30;99.90
31542;DHT22;18152;49.986;8.646;2023-09-07T01:07:17;15.30;99.90
31542;DHT22;18152;49.986;8.646;2023-09-07T01:09:44;15.30;99.90
31542;DHT22;18152;49.986;8.646;2023-09-07T01:12:15;15.20;99.90
31542;DHT22;18152;49.986;8.646;2023-09-07T01:14:41;15.20;99.90
31542;DHT22;18152;49.986;8.646;2023-09-07T01:17:07;15.20;99.90
31542;DHT22;18152;49.986;8.646;2023-09-07T01:19:34;15.20;99.90
31542;DHT22;18152;49.986;8.646;2023-09-07T01:22:00;15.10;99.90
31542;DHT22;18152;49.986;8.646;2023-09-07T01:24:26;15.10;99.90
31542;DHT22;18152;49.986;8.646;2023-09-07T01:26:56;15.10;99.90
31542;DHT22;18152;49.986;8.646;2023-09-07T01:29:22;15.10;99.90
31542;DHT22;18152;49.986;8.646;2023-09-07T01:31:48;15.00;99.90
31542;DHT22;18152;49.986;8.646;2023-09-07T01:34:14;15.00;99.90
31542;DHT22;18152;49.986;8.646;2023-09-07T01:36:40;15.00;99.90
31542;DHT22;18152;49.986;8.646;2023-09-07T01:39:07;14.90;99.90
31542;DHT22;18152;49.986;8.646;2023-09-07T01:41:34;14.90;99.90
31542;DHT22;18152;49.986;8.646;2023-09-07T01:43:59;15.00;99.90
31542;DHT22;18152;49.986;8.646;2023-09-07T01:46:25;14.90;99.90
31542;DHT22;18152;49.986;8.646;2023-09-07T01:48:50;14.90;99.90
31542;DHT22;18152;49.986;8.646;2023-09-07T01:51:16;14.90;99.90
31542;DHT22;18152;49.986;8.646;2023-09-07T01:53:42;14.90;99.90
31542;DHT22;18152;49.986;8.646;2023-09-07T01:56:07;14.80;99.90
31542;DHT22;18152;49.986;8.646;2023-09-07T01:58:33;14.80;99.90
31542;DHT22;18152;49.986;8.646;2023-09-07T02:00:59;14.70;99.90
31542;DHT22;18152;49.986;8.646;2023-09-07T02:03:26;14.70;99.90
31542;DHT22;18152;49.986;8.646;2023-09-07T02:05:55;14.60;99.90
31542;DHT22;18152;49.986;8.646;2023-09-07T02:08:20;14.60;99.90
31542;DHT22;18152;49.986;8.646;2023-09-07T02:10:46;14.50;99.90
31542;DHT22;18152;49.986;8.646;2023-09-07T02:13:12;14.60;99.90
31542;DHT22;18152;49.986;8.646;2023-09-07T02:15:38;14.50;99.90
31542;DHT22;18152;49.986;8.646;2023-09-07T02:18:04;14.50;99.90
31542;DHT22;18152;49.986;8.646;2023-09-07T02:20:31;14.50;99.90
31542;DHT22;18152;49.986;8.646;2023-09-07T02:22:57;14.50;99.90
31542;DHT22;18152;49.986;8.646;2023-09-07T02:25:22;14.50;99.90
31542;DHT22;18152;49.986;8.646;2023-09-07T02:27:48;14.50;99.90
31542;DHT22;18152;49.986;8.646;2023-09-07T02:30:13;14.50;99.90
31542;DHT22;18152;49.986;8.646;2023-09-07T02:32:42;14.50;99.90
31542;DHT22;18152;49.986;8.646;2023-09-07T02:35:07;14.40;99.90
31542;DHT22;18152;49.986;8.646;2023-09-07T02:37:35;14.60;99.90
31542;DHT22;18152;49.986;8.646;2023-09-07T02:40:00;14.60;99.90
31542;DHT22;18152;49.986;8.646;2023-09-07T02:42:26;14.70;99.90
31542;DHT22;18152;49.986;8.646;2023-09-07T02:44:51;14.60;99.90
31542;DHT22;18152;49.986;8.646;2023-09-07T02:47:17;14.70;99.90
31542;DHT22;18152;49.986;8.646;2023-09-07T02:49:43;14.80;99.90
31542;DHT22;18152;49.986;8.646;2023-09-07T02:52:08;14.80;99.90
31542;DHT22;18152;49.986;8.646;2023-09-07T02:54:34;14.80;99.90
31542;DHT22;18152;49.986;8.646;2023-09-07T02:56:59;14.70;99.90
31542;DHT22;18152;49.986;8.646;2023-09-07T02:59:25;14.70;99.90
31542;DHT22;18152;49.986;8.646;2023-09-07T03:01:51;14.70;99.90
31542;DHT22;18152;49.986;8.646;2023-09-07T03:04:16;14.60;99.90
31542;DHT22;18152;49.986;8.646;2023-09-07T03:06:42;14.70;99.90
31542;DHT22;18152;49.986;8.646;2023-09-07T03:09:07;14.70;99.90
31542;DHT22;18152;49.986;8.646;2023-09-07T03:11:34;14.70;99.90
31542;DHT22;18152;49.986;8.646;2023-09-07T03:14:00;14.70;99.90
31542;DHT22;18152;49.986;8.646;2023-09-07T03:16:26;14.70;99.90
31542;DHT22;18152;49.986;8.646;2023-09-07T03:18:51;14.60;99.90
31542;DHT22;18152;49.986;8.646;2023-09-07T03:21:17;14.60;99.90
31542;DHT22;18152;49.986;8.646;2023-09-07T03:23:43;14.50;99.90
31542;DHT22;18152;49.986;8.646;2023-09-07T03:26:10;14.50;99.90
31542;DHT22;18152;49.986;8.646;2023-09-07T03:28:35;14.50;99.90
31542;DHT22;18152;49.986;8.646;2023-09-07T03:31:01;14.50;99.90
31542;DHT22;18152;49.986;8.646;2023-09-07T03:33:27;14.50;99.90
31542;DHT22;18152;49.986;8.646;2023-09-07T03:35:52;14.40;99.90
31542;DHT22;18152;49.986;8.646;2023-09-07T03:38:18;14.50;99.90
31542;DHT22;18152;49.986;8.646;2023-09-07T03:40:44;14.50;99.90
31542;DHT22;18152;49.986;8.646;2023-09-07T03:43:09;14.40;99.90
31542;DHT22;18152;49.986;8.646;2023-09-07T03:45:35;14.40;99.90
31542;DHT22;18152;49.986;8.646;2023-09-07T03:48:01;14.40;99.90
31542;DHT22;18152;49.986;8.646;2023-09-07T03:50:26;14.40;99.90
31542;DHT22;18152;49.986;8.646;2023-09-07T03:52:52;14.30;99.90
31542;DHT22;18152;49.986;8.646;2023-09-07T03:55:17;14.40;99.90
31542;DHT22;18152;49.986;8.646;2023-09-07T03:57:43;14.30;99.90
31542;DHT22;18152;49.986;8.646;2023-09-07T04:00:09;14.30;99.90
31542;DHT22;18152;49.986;8.646;2023-09-07T04:02:35;14.40;99.90
31542;DHT22;18152;49.986;8.646;2023-09-07T04:05:00;14.30;99.90
31542;DHT22;18152;49.986;8.646;2023-09-07T04:07:31;14.30;99.90
31542;DHT22;18152;49.986;8.646;2023-09-07T04:09:56;14.30;99.90
31542;DHT22;18152;49.986;8.646;2023-09-07T04:12:22;14.30;99.90
31542;DHT22;18152;49.986;8.646;2023-09-07T04:14:47;14.30;99.90
31542;DHT22;18152;49.986;8.646;2023-09-07T04:17:13;14.20;99.90
31542;DHT22;18152;49.986;8.646;2023-09-07T04:19:38;14.20;99.90
31542;DHT22;18152;49.986;8.646;2023-09-07T04:22:04;14.30;99.90
31542;DHT22;18152;49.986;8.646;2023-09-07T04:24:30;14.20;99.90
31542;DHT22;18152;49.986;8.646;2023-09-07T04:27:02;14.20;99.90
31542;DHT22;18152;49.986;8.646;2023-09-07T04:29:27;14.30;99.90
31542;DHT22;18152;49.986;8.646;2023-09-07T04:31:53;14.20;99.90
31542;DHT22;18152;49.986;8.646;2023-09-07T04:34:21;14.20;99.90
31542;DHT22;18152;49.986;8.646;2023-09-07T04:36:46;14.40;99.90
31542;DHT22;18152;49.986;8.646;2023-09-07T04:39:12;14.30;99.90
31542;DHT22;18152;49.986;8.646;2023-09-07T04:41:39;14.30;99.90
31542;DHT22;18152;49.986;8.646;2023-09-07T04:44:05;14.30;99.90
31542;DHT22;18152;49.986;8.646;2023-09-07T04:46:31;14.30;99.90
31542;DHT22;18152;49.986;8.646;2023-09-07T04:48:56;14.40;99.90
31542;DHT22;18152;49.986;8.646;2023-09-07T04:51:22;14.40;99.90
31542;DHT22;18152;49.986;8.646;2023-09-07T04:53:49;14.60;99.90
31542;DHT22;18152;49.986;8.646;2023-09-07T04:56:15;14.70;99.90
31542;DHT22;18152;49.986;8.646;2023-09-07T04:58:41;14.70;99.90
31542;DHT22;18152;49.986;8.646;2023-09-07T05:01:09;14.80;99.90
31542;DHT22;18152;49.986;8.646;2023-09-07T05:03:35;14.90;99.90
31542;DHT22;18152;49.986;8.646;2023-09-07T05:06:02;14.80;99.90
31542;DHT22;18152;49.986;8.646;2023-09-07T05:08:28;14.80;99.90
31542;DHT22;18152;49.986;8.646;2023-09-07T05:10:58;14.70;99.90
31542;DHT22;18152;49.986;8.646;2023-09-07T05:13:25;14.80;99.90
31542;DHT22;18152;49.986;8.646;2023-09-07T05:15:52;14.90;99.90
31542;DHT22;18152;49.986;8.646;2023-09-07T05:18:18;15.00;99.90
31542;DHT22;18152;49.986;8.646;2023-09-07T05:20:44;14.90;99.90
31542;DHT22;18152;49.986;8.646;2023-09-07T05:23:20;15.00;99.90
31542;DHT22;18152;49.986;8.646;2023-09-07T05:25:50;15.00;99.90
31542;DHT22;18152;49.986;8.646;2023-09-07T05:28:19;15.10;99.90
31542;DHT22;18152;49.986;8.646;2023-09-07T05:30:45;15.10;99.90
31542;DHT22;18152;49.986;8.646;2023-09-07T05:33:12;15.10;99.90
31542;DHT22;18152;49.986;8.646;2023-09-07T05:35:38;15.00;99.90
31542;DHT22;18152;49.986;8.646;2023-09-07T05:38:06;14.90;99.90
31542;DHT22;18152;49.986;8.646;2023-09-07T05:40:43;15.00;99.90
31542;DHT22;18152;49.986;8.646;2023-09-07T05:43:09;15.00;99.90
31542;DHT22;18152;49.986;8.646;2023-09-07T05:45:38;15.20;99.90
31542;DHT22;18152;49.986;8.646;2023-09-07T05:48:04;15.20;99.90
31542;DHT22;18152;49.986;8.646;2023-09-07T05:50:30;15.30;99.90
31542;DHT22;18152;49.986;8.646;2023-09-07T05:52:56;15.30;99.90
31542;DHT22;18152;49.986;8.646;2023-09-07T05:55:21;15.40;99.90
31542;DHT22;18152;49.986;8.646;2023-09-07T05:57:48;15.40;99.90
31542;DHT22;18152;49.986;8.646;2023-09-07T06:00:14;15.60;99.90
31542;DHT22;18152;49.986;8.646;2023-09-07T06:02:42;15.70;99.90
31542;DHT22;18152;49.986;8.646;2023-09-07T06:05:08;15.80;99.90
31542;DHT22;18152;49.986;8.646;2023-09-07T06:07:34;15.90;99.90
31542;DHT22;18152;49.986;8.646;2023-09-07T06:09:59;15.90;99.90
31542;DHT22;18152;49.986;8.646;2023-09-07T06:12:25;16.00;99.90
31542;DHT22;18152;49.986;8.646;2023-09-07T06:14:50;16.00;99.90
31542;DHT22;18152;49.986;8.646;2023-09-07T06:17:16;16.20;99.90
31542;DHT22;18152;49.986;8.646;2023-09-07T06:19:42;16.40;99.90
31542;DHT22;18152;49.986;8.646;2023-09-07T06:22:08;16.60;99.90
31542;DHT22;18152;49.986;8.646;2023-09-07T06:24:33;16.90;99.90
31542;DHT22;18152;49.986;8.646;2023-09-07T06:26:59;17.20;99.90
31542;DHT22;18152;49.986;8.646;2023-09-07T06:29:24;17.70;99.90
31542;DHT22;18152;49.986;8.646;2023-09-07T06:31:50;19.10;99.90
31542;DHT22;18152;49.986;8.646;2023-09-07T06:34:16;20.80;99.90
31542;DHT22;18152;49.986;8.646;2023-09-07T06:36:41;21.30;99.90
31542;DHT22;18152;49.986;8.646;2023-09-07T06:39:07;21.60;99.90
31542;DHT22;18152;49.986;8.646;2023-09-07T06:41:33;22.60;99.90
31542;DHT22;18152;49.986;8.646;2023-09-07T06:43:58;21.90;99.90
31542;DHT22;18152;49.986;8.646;2023-09-07T06:46:24;21.10;99.90
31542;DHT22;18152;49.986;8.646;2023-09-07T06:48:49;20.80;99.90
31542;DHT22;18152;49.986;8.646;2023-09-07T06:51:15;20.70;99.90
31542;DHT22;18152;49.986;8.646;2023-09-07T06:53:40;20.50;99.90
31542;DHT22;18152;49.986;8.646;2023-09-07T06:56:07;20.60;99.90
31542;DHT22;18152;49.986;8.646;2023-09-07T06:58:32;20.60;99.90
31542;DHT22;18152;49.986;8.646;2023-09-07T07:01:00;21.10;99.90
31542;DHT22;18152;49.986;8.646;2023-09-07T07:03:27;21.80;99.90
31542;DHT22;18152;49.986;8.646;2023-09-07T07:05:53;22.60;99.90
31542;DHT22;18152;49.986;8.646;2023-09-07T07:08:19;22.50;99.90
31542;DHT22;18152;49.986;8.646;2023-09-07T07:10:44;22.70;99.90
31542;DHT22;18152;49.986;8.646;2023-09-07T07:13:10;23.20;99.90
31542;DHT22;18152;49.986;8.646;2023-09-07T07:15:36;23.10;99.90
31542;DHT22;18152;49.986;8.646;2023-09-07T07:18:02;23.30;99.90
31542;DHT22;18152;49.986;8.646;2023-09-07T07:20:34;23.60;99.90
31542;DHT22;18152;49.986;8.646;2023-09-07T07:23:00;23.90;99.90
31542;DHT22;18152;49.986;8.646;2023-09-07T07:25:25;24.70;99.90
31542;DHT22;18152;49.986;8.646;2023-09-07T07:27:51;24.70;99.90
31542;DHT22;18152;49.986;8.646;2023-09-07T07:30:17;24.80;99.90
31542;DHT22;18152;49.986;8.646;2023-09-07T07:32:42;24.80;99.90
31542;DHT22;18152;49.986;8.646;2023-09-07T07:35:08;24.80;99.90
31542;DHT22;18152;49.986;8.646;2023-09-07T07:37:33;24.40;99.90
31542;DHT22;18152;49.986;8.646;2023-09-07T07:39:59;24.50;99.90
31542;DHT22;18152;49.986;8.646;2023-09-07T07:42:24;24.70;99.90
31542;DHT22;18152;49.986;8.646;2023-09-07T07:44:50;24.60;99.90
31542;DHT22;18152;49.986;8.646;2023-09-07T07:47:15;24.90;99.90
31542;DHT22;18152;49.986;8.646;2023-09-07T07:49:41;25.10;99.90
31542;DHT22;18152;49.986;8.646;2023-09-07T07:52:07;24.90;99.90
31542;DHT22;18152;49.986;8.646;2023-09-07T07:54:36;24.50;99.90
31542;DHT22;18152;49.986;8.646;2023-09-07T07:57:02;24.10;99.90
31542;DHT22;18152;49.986;8.646;2023-09-07T07:59:28;23.60;99.90
31542;DHT22;18152;49.986;8.646;2023-09-07T08:01:53;23.00;99.90
31542;DHT22;18152;49.986;8.646;2023-09-07T08:04:19;22.90;99.90
31542;DHT22;18152;49.986;8.646;2023-09-07T08:06:44;22.70;99.90
31542;DHT22;18152;49.986;8.646;2023-09-07T08:09:10;22.60;99.90
31542;DHT22;18152;49.986;8.646;2023-09-07T08:11:36;22.40;99.90
31542;DHT22;18152;49.986;8.646;2023-09-07T08:14:01;22.20;99.90
31542;DHT22;18152;49.986;8.646;2023-09-07T08:16:27;22.10;99.90
31542;DHT22;18152;49.986;8.646;2023-09-07T08:18:53;21.80;99.90
31542;DHT22;18152;49.986;8.646;2023-09-07T08:21:18;21.70;99.90
31542;DHT22;18152;49.986;8.646;2023-09-07T08:23:44;21.80;99.90
31542;DHT22;18152;49.986;8.646;2023-09-07T08:26:09;22.10;99.90
31542;DHT22;18152;49.986;8.646;2023-09-07T08:28:35;22.40;99.90
31542;DHT22;18152;49.986;8.646;2023-09-07T08:31:01;22.80;99.90
31542;DHT22;18152;49.986;8.646;2023-09-07T08:33:26;23.90;99.90
31542;DHT22;18152;49.986;8.646;2023-09-07T08:35:56;24.80;99.90
31542;DHT22;18152;49.986;8.646;2023-09-07T08:38:22;25.70;99.90
31542;DHT22;18152;49.986;8.646;2023-09-07T08:41:00;26.00;99.90
31542;DHT22;18152;49.986;8.646;2023-09-07T08:43:28;26.50;99.90
31542;DHT22;18152;49.986;8.646;2023-09-07T08:46:15;26.80;99.90
31542;DHT22;18152;49.986;8.646;2023-09-07T08:48:43;27.90;99.90
31542;DHT22;18152;49.986;8.646;2023-09-07T08:51:09;29.10;99.50
31542;DHT22;18152;49.986;8.646;2023-09-07T08:53:37;28.50;96.90
31542;DHT22;18152;49.986;8.646;2023-09-07T08:56:04;29.10;96.90
31542;DHT22;18152;49.986;8.646;2023-09-07T08:58:31;29.70;95.10
31542;DHT22;18152;49.986;8.646;2023-09-07T09:00:57;29.50;97.40
31542;DHT22;18152;49.986;8.646;2023-09-07T09:03:23;29.80;96.60
31542;DHT22;18152;49.986;8.646;2023-09-07T09:05:50;29.70;96.30
31542;DHT22;18152;49.986;8.646;2023-09-07T09:08:16;29.20;96.20
31542;DHT22;18152;49.986;8.646;2023-09-07T09:10:45;28.70;97.60
31542;DHT22;18152;49.986;8.646;2023-09-07T09:13:11;28.80;98.10
31542;DHT22;18152;49.986;8.646;2023-09-07T09:15:37;28.70;95.90
31542;DHT22;18152;49.986;8.646;2023-09-07T09:18:10;28.90;97.70
31542;DHT22;18152;49.986;8.646;2023-09-07T09:20:38;28.80;95.40
31542;DHT22;18152;49.986;8.646;2023-09-07T09:23:04;28.80;95.80
31542;DHT22;18152;49.986;8.646;2023-09-07T09:25:31;28.70;96.90
31542;DHT22;18152;49.986;8.646;2023-09-07T09:27:57;28.70;95.60
31542;DHT22;18152;49.986;8.646;2023-09-07T09:30:22;28.80;95.70
31542;DHT22;18152;49.986;8.646;2023-09-07T09:32:48;28.90;97.70
31542;DHT22;18152;49.986;8.646;2023-09-07T09:35:16;28.80;94.80
31542;DHT22;18152;49.986;8.646;2023-09-07T09:37:44;28.90;97.20
31542;DHT22;18152;49.986;8.646;2023-09-07T09:40:11;29.40;96.20
31542;DHT22;18152;49.986;8.646;2023-09-07T09:42:37;29.50;94.80
31542;DHT22;18152;49.986;8.646;2023-09-07T09:45:06;29.80;96.80
31542;DHT22;18152;49.986;8.646;2023-09-07T09:47:33;29.70;94.50
31542;DHT22;18152;49.986;8.646;2023-09-07T09:50:02;29.80;94.40
31542;DHT22;18152;49.986;8.646;2023-09-07T09:52:31;30.00;95.20
31542;DHT22;18152;49.986;8.646;2023-09-07T09:54:57;29.70;98.40
31542;DHT22;18152;49.986;8.646;2023-09-07T09:57:23;29.70;95.10
31542;DHT22;18152;49.986;8.646;2023-09-07T09:59:50;29.60;94.60
31542;DHT22;18152;49.986;8.646;2023-09-07T10:02:17;29.50;90.70
31542;DHT22;18152;49.986;8.646;2023-09-07T10:04:43;29.40;93.70
31542;DHT22;18152;49.986;8.646;2023-09-07T10:07:09;29.70;95.70
31542;DHT22;18152;49.986;8.646;2023-09-07T10:09:35;30.10;92.10
31542;DHT22;18152;49.986;8.646;2023-09-07T10:12:04;30.00;92.00
31542;DHT22;18152;49.986;8.646;2023-09-07T10:14:40;29.90;94.00
31542;DHT22;18152;49.986;8.646;2023-09-07T10:17:06;30.00;94.60
31542;DHT22;18152;49.986;8.646;2023-09-07T10:19:32;30.10;93.20
31542;DHT22;18152;49.986;8.646;2023-09-07T10:22:02;30.10;95.10
31542;DHT22;18152;49.986;8.646;2023-09-07T10:24:30;30.10;88.50
31542;DHT22;18152;49.986;8.646;2023-09-07T10:27:01;29.90;90.20
31542;DHT22;18152;49.986;8.646;2023-09-07T10:29:27;29.80;91.60
31542;DHT22;18152;49.986;8.646;2023-09-07T10:31:53;30.00;89.90
31542;DHT22;18152;49.986;8.646;2023-09-07T10:34:19;30.40;94.40
31542;DHT22;18152;49.986;8.646;2023-09-07T10:36:45;30.10;90.70
31542;DHT22;18152;49.986;8.646;2023-09-07T10:39:11;29.80;87.90
31542;DHT22;18152;49.986;8.646;2023-09-07T10:41:45;29.30;92.30
31542;DHT22;18152;49.986;8.646;2023-09-07T10:44:10;29.80;92.60
31542;DHT22;18152;49.986;8.646;2023-09-07T10:46:38;30.40;91.30
31542;DHT22;18152;49.986;8.646;2023-09-07T10:49:07;30.40;87.30
31542;DHT22;18152;49.986;8.646;2023-09-07T10:51:40;30.10;90.80
31542;DHT22;18152;49.986;8.646;2023-09-07T10:54:17;30.30;91.70
31542;DHT22;18152;49.986;8.646;2023-09-07T10:56:46;30.90;93.00
31542;DHT22;18152;49.986;8.646;2023-09-07T10:59:13;31.20;93.30
31542;DHT22;18152;49.986;8.646;2023-09-07T11:01:39;30.50;85.10
31542;DHT22;18152;49.986;8.646;2023-09-07T11:04:04;30.50;91.40
31542;DHT22;18152;49.986;8.646;2023-09-07T11:06:31;30.80;90.40
31542;DHT22;18152;49.986;8.646;2023-09-07T11:09:00;30.60;92.00
31542;DHT22;18152;49.986;8.646;2023-09-07T11:11:26;31.00;91.80
31542;DHT22;18152;49.986;8.646;2023-09-07T11:13:52;31.20;83.10
31542;DHT22;18152;49.986;8.646;2023-09-07T11:16:17;30.90;88.70
31542;DHT22;18152;49.986;8.646;2023-09-07T11:18:45;30.70;89.90
31542;DHT22;18152;49.986;8.646;2023-09-07T11:21:11;30.60;88.50
31542;DHT22;18152;49.986;8.646;2023-09-07T11:23:37;31.40;90.00
31542;DHT22;18152;49.986;8.646;2023-09-07T11:26:07;31.60;87.30
31542;DHT22;18152;49.986;8.646;2023-09-07T11:28:33;31.40;90.00
31542;DHT22;18152;49.986;8.646;2023-09-07T11:30:59;31.70;90.70
31542;DHT22;18152;49.986;8.646;2023-09-07T11:33:25;32.10;88.70
31542;DHT22;18152;49.986;8.646;2023-09-07T11:35:51;31.80;86.10
31542;DHT22;18152;49.986;8.646;2023-09-07T11:38:18;31.80;90.70
31542;DHT22;18152;49.986;8.646;2023-09-07T11:40:44;31.60;86.00
31542;DHT22;18152;49.986;8.646;2023-09-07T11:43:13;31.00;81.90
31542;DHT22;18152;49.986;8.646;2023-09-07T11:45:40;30.90;93.10
31542;DHT22;18152;49.986;8.646;2023-09-07T11:48:06;31.40;87.00
31542;DHT22;18152;49.986;8.646;2023-09-07T11:50:34;31.90;91.10
31542;DHT22;18152;49.986;8.646;2023-09-07T11:53:00;32.20;88.00
31542;DHT22;18152;49.986;8.646;2023-09-07T11:55:26;32.50;83.80
31542;DHT22;18152;49.986;8.646;2023-09-07T11:57:51;32.80;85.70
31542;DHT22;18152;49.986;8.646;2023-09-07T12:00:17;32.40;84.90
31542;DHT22;18152;49.986;8.646;2023-09-07T12:02:43;32.20;79.30
31542;DHT22;18152;49.986;8.646;2023-09-07T12:05:09;32.30;86.60
31542;DHT22;18152;49.986;8.646;2023-09-07T12:07:38;32.00;77.00
31542;DHT22;18152;49.986;8.646;2023-09-07T12:10:04;31.60;79.00
31542;DHT22;18152;49.986;8.646;2023-09-07T12:12:29;31.50;85.50
31542;DHT22;18152;49.986;8.646;2023-09-07T12:14:55;31.20;77.00
31542;DHT22;18152;49.986;8.646;2023-09-07T12:17:22;31.50;86.90
31542;DHT22;18152;49.986;8.646;2023-09-07T12:19:50;31.50;77.20
31542;DHT22;18152;49.986;8.646;2023-09-07T12:22:15;31.20;79.40
31542;DHT22;18152;49.986;8.646;2023-09-07T12:24:41;31.10;78.50
31542;DHT22;18152;49.986;8.646;2023-09-07T12:27:07;31.40;86.40
31542;DHT22;18152;49.986;8.646;2023-09-07T12:29:32;31.40;76.90
31542;DHT22;18152;49.986;8.646;2023-09-07T12:31:58;30.90;76.60
31542;DHT22;18152;49.986;8.646;2023-09-07T12:34:24;30.70;80.30
31542;DHT22;18152;49.986;8.646;2023-09-07T12:36:49;30.80;86.30
31542;DHT22;18152;49.986;8.646;2023-09-07T12:39:15;31.40;83.00
31542;DHT22;18152;49.986;8.646;2023-09-07T12:41:40;31.20;77.20
31542;DHT22;18152;49.986;8.646;2023-09-07T12:44:06;31.50;83.90
31542;DHT22;18152;49.986;8.646;2023-09-07T12:46:33;31.60;77.80
31542;DHT22;18152;49.986;8.646;2023-09-07T12:48:59;31.60;86.90
31542;DHT22;18152;49.986;8.646;2023-09-07T12:51:24;31.50;82.90
31542;DHT22;18152;49.986;8.646;2023-09-07T12:53:51;31.30;81.20
31542;DHT22;18152;49.986;8.646;2023-09-07T12:56:17;31.20;83.20
31542;DHT22;18152;49.986;8.646;2023-09-07T12:58:44;31.30;79.60
31542;DHT22;18152;49.986;8.646;2023-09-07T13:01:09;30.90;86.00
31542;DHT22;18152;49.986;8.646;2023-09-07T13:03:35;31.10;85.10
31542;DHT22;18152;49.986;8.646;2023-09-07T13:06:01;31.40;83.60
31542;DHT22;18152;49.986;8.646;2023-09-07T13:08:28;31.20;81.80
31542;DHT22;18152;49.986;8.646;2023-09-07T13:10:55;31.10;82.00
31542;DHT22;18152;49.986;8.646;2023-09-07T13:13:21;31.30;87.30
31542;DHT22;18152;49.986;8.646;2023-09-07T13:15:47;31.10;85.80
31542;DHT22;18152;49.986;8.646;2023-09-07T13:18:13;31.20;85.00
31542;DHT22;18152;49.986;8.646;2023-09-07T13:20:39;31.00;85.40
31542;DHT22;18152;49.986;8.646;2023-09-07T13:23:05;31.10;82.30
31542;DHT22;18152;49.986;8.646;2023-09-07T13:25:31;30.90;83.00
31542;DHT22;18152;49.986;8.646;2023-09-07T13:27:56;30.70;83.40
31542;DHT22;18152;49.986;8.646;2023-09-07T13:30:22;30.80;82.20
31542;DHT22;18152;49.986;8.646;2023-09-07T13:32:47;30.80;88.90
31542;DHT22;18152;49.986;8.646;2023-09-07T13:35:15;30.40;81.80
31542;DHT22;18152;49.986;8.646;2023-09-07T13:37:41;30.30;78.40
31542;DHT22;18152;49.986;8.646;2023-09-07T13:40:07;30.10;80.90
31542;DHT22;18152;49.986;8.646;2023-09-07T13:42:33;29.90;78.30
31542;DHT22;18152;49.986;8.646;2023-09-07T13:44:58;30.00;78.60
31542;DHT22;18152;49.986;8.646;2023-09-07T13:47:24;30.00;82.30
31542;DHT22;18152;49.986;8.646;2023-09-07T13:49:49;30.20;85.50
31542;DHT22;18152;49.986;8.646;2023-09-07T13:52:15;30.40;84.50
31542;DHT22;18152;49.986;8.646;2023-09-07T13:54:41;30.50;84.40
31542;DHT22;18152;49.986;8.646;2023-09-07T13:57:06;30.30;78.40
31542;DHT22;18152;49.986;8.646;2023-09-07T13:59:33;30.20;82.70
31542;DHT22;18152;49.986;8.646;2023-09-07T14:02:00;30.30;85.00
31542;DHT22;18152;49.986;8.646;2023-09-07T14:04:26;29.90;84.60
31542;DHT22;18152;49.986;8.646;2023-09-07T14:06:52;29.90;83.40
31542;DHT22;18152;49.986;8.646;2023-09-07T14:09:17;30.00;83.90
31542;DHT22;18152;49.986;8.646;2023-09-07T14:11:44;29.80;77.90
31542;DHT22;18152;49.986;8.646;2023-09-07T14:14:10;29.80;84.10
31542;DHT22;18152;49.986;8.646;2023-09-07T14:16:36;29.80;83.20
31542;DHT22;18152;49.986;8.646;2023-09-07T14:19:01;29.90;88.30
31542;DHT22;18152;49.986;8.646;2023-09-07T14:21:27;29.80;81.70
31542;DHT22;18152;49.986;8.646;2023-09-07T14:23:53;29.60;77.70
31542;DHT22;18152;49.986;8.646;2023-09-07T14:26:18;29.40;79.10
31542;DHT22;18152;49.986;8.646;2023-09-07T14:28:44;29.30;76.60
31542;DHT22;18152;49.986;8.646;2023-09-07T14:31:09;29.00;78.40
31542;DHT22;18152;49.986;8.646;2023-09-07T14:33:35;29.00;79.80
31542;DHT22;18152;49.986;8.646;2023-09-07T14:36:05;29.00;75.80
31542;DHT22;18152;49.986;8.646;2023-09-07T14:38:31;29.20;78.90
31542;DHT22;18152;49.986;8.646;2023-09-07T14:41:00;29.20;81.90
31542;DHT22;18152;49.986;8.646;2023-09-07T14:43:25;29.20;76.90
31542;DHT22;18152;49.986;8.646;2023-09-07T14:45:51;29.00;76.80
31542;DHT22;18152;49.986;8.646;2023-09-07T14:48:17;29.20;84.40
31542;DHT22;18152;49.986;8.646;2023-09-07T14:50:42;29.10;77.90
31542;DHT22;18152;49.986;8.646;2023-09-07T14:53:08;29.10;76.70
31542;DHT22;18152;49.986;8.646;2023-09-07T14:55:33;29.00;73.80
31542;DHT22;18152;49.986;8.646;2023-09-07T14:57:59;29.00;79.50
31542;DHT22;18152;49.986;8.646;2023-09-07T15:00:24;28.90;75.00
31542;DHT22;18152;49.986;8.646;2023-09-07T15:02:53;28.80;75.50
31542;DHT22;18152;49.986;8.646;2023-09-07T15:05:18;28.80;74.30
31542;DHT22;18152;49.986;8.646;2023-09-07T15:07:44;28.70;76.50
31542;DHT22;18152;49.986;8.646;2023-09-07T15:10:09;28.70;74.90
31542;DHT22;18152;49.986;8.646;2023-09-07T15:12:35;28.60;76.30
31542;DHT22;18152;49.986;8.646;2023-09-07T15:15:01;28.50;76.10
31542;DHT22;18152;49.986;8.646;2023-09-07T15:17:27;28.50;77.90
31542;DHT22;18152;49.986;8.646;2023-09-07T15:19:53;28.50;75.40
31542;DHT22;18152;49.986;8.646;2023-09-07T15:22:18;28.40;76.10
31542;DHT22;18152;49.986;8.646;2023-09-07T15:24:44;28.40;77.60